Terminal Aerodrome Forecast
Issued by NWS Charleston, WV

Current Version | Previous Version | Graphics & Text | Print | Product List | Glossary On
Versions: 1 2 3 4 5 6 7 8 9 10 11 12 13 14 15 16 17 18 19 20 21 22 23 24 25
000
FTUS41 KRLX 311737
TAFCRW
TAF
KCRW 311737Z 3118/0118 VRB04KT P6SM SCT040
     FM010600 00000KT 4SM BR SCT040
     FM010800 00000KT 1/4SM FG VV001
     FM011200 00000KT 3SM BR SCT040
     FM011300 00000KT P6SM SCT040=

USA.gov is the U.S. government's official web portal to all federal, state and local government web resources and services.